Pagina principale
METAR-TAF:

METAR-TAF

Aeroporti :

Aeroporto Internazionale del Cairo

Il Cairo, Egitto

latitudine: 30-08N, longitudine: 031-24E, altezza: 64 m

Osservazione

Il bollettino è stato emesso 32 minuti fa, alle 14:00 UTC
Vento 10 kt da nord
Temperature 38°C
Umidità 19%
Pressione 1010 hPa
Visibilità 10 km o più
nessuna nube inferiore a 1500 m e nessun cumulonembo

METAR: HECA 241400Z 01010KT CAVOK 38/10 Q1010 NOSIG

Ora: 16:32 (14:32 UTC)

Previsione

Il bollettino è stato emesso 3 ore e 32 minuti fa, alle 11:00 UTC
Previsione valida dal 24 alle 12 UTC al 25 alle 18 UTC
Vento 6 kt da est/nord-est
Visibilità 10 km o più
nessuna nube inferiore a 1500 m e nessun cumulonembo
Temporaneamente
dal 24 alle 15 UTC al 24 alle 24 UTC
Visibilità: 6000 m
Nubi sparse ad un'altezza di 2000 ft
Nubi sparse ad un'altezza di 10000 ft
pioggia debole

TAF: HECA 241100Z 2412/2518 06006KT CAVOK TEMPO 2415/2424 6000 -RA SCT020 SCT100

Osservazioni e previsioni meteorologiche di più di 4000 aeroporti (messaggi METAR e TAF).

Le stazioni disponibili sono rappresentate dai dischi gialli e rossi sulla carta.

Puntare il mouse per vedere il nome della stazione.

Clicca sopra per visualizzare le osservazioni e previsioni meteorologiche.

Per cambiare la mappa : fare clic sui pulsanti verdi con una croce nera per ingrandire, il pulsante verde con un trattino per diminuire, o sulla freccia verde per le mappe adiacenti.


METAR-TAF: